sensor_id;sensor_type;location;lat;lon;timestamp;P1;durP1;ratioP1;P2;durP2;ratioP2
41512;SDS011;27244;59.940;30.280;2022-08-30T00:01:04;1.75;;;1.17;;
41512;SDS011;27244;59.940;30.280;2022-08-30T00:03:33;1.60;;;1.20;;
41512;SDS011;27244;59.940;30.280;2022-08-30T00:06:02;1.63;;;1.00;;
41512;SDS011;27244;59.940;30.280;2022-08-30T00:08:31;2.70;;;1.20;;
41512;SDS011;27244;59.940;30.280;2022-08-30T00:10:58;2.15;;;1.30;;
41512;SDS011;27244;59.940;30.280;2022-08-30T00:13:25;1.83;;;1.30;;
41512;SDS011;27244;59.940;30.280;2022-08-30T00:15:54;2.25;;;1.48;;
41512;SDS011;27244;59.940;30.280;2022-08-30T00:18:21;1.77;;;1.40;;
41512;SDS011;27244;59.940;30.280;2022-08-30T00:20:49;3.13;;;1.15;;
41512;SDS011;27244;59.940;30.280;2022-08-30T00:23:17;1.45;;;1.00;;
41512;SDS011;27244;59.940;30.280;2022-08-30T00:25:45;1.55;;;1.10;;
41512;SDS011;27244;59.940;30.280;2022-08-30T00:28:13;2.05;;;1.10;;
41512;SDS011;27244;59.940;30.280;2022-08-30T00:30:41;1.75;;;1.13;;
41512;SDS011;27244;59.940;30.280;2022-08-30T00:33:09;2.92;;;1.05;;
41512;SDS011;27244;59.940;30.280;2022-08-30T00:35:37;1.40;;;1.20;;
41512;SDS011;27244;59.940;30.280;2022-08-30T00:38:07;2.42;;;1.20;;
41512;SDS011;27244;59.940;30.280;2022-08-30T00:40:35;2.25;;;1.13;;
41512;SDS011;27244;59.940;30.280;2022-08-30T00:43:03;2.20;;;0.93;;
41512;SDS011;27244;59.940;30.280;2022-08-30T00:45:33;1.67;;;1.20;;
41512;SDS011;27244;59.940;30.280;2022-08-30T00:48:03;1.50;;;1.10;;
41512;SDS011;27244;59.940;30.280;2022-08-30T00:50:33;1.45;;;1.02;;
41512;SDS011;27244;59.940;30.280;2022-08-30T00:53:04;1.75;;;1.20;;
41512;SDS011;27244;59.940;30.280;2022-08-30T00:55:36;2.17;;;1.10;;
41512;SDS011;27244;59.940;30.280;2022-08-30T00:58:04;1.60;;;1.10;;
41512;SDS011;27244;59.940;30.280;2022-08-30T01:00:33;2.35;;;0.93;;
41512;SDS011;27244;59.940;30.280;2022-08-30T01:03:02;1.50;;;1.05;;
41512;SDS011;27244;59.940;30.280;2022-08-30T01:05:29;1.73;;;1.20;;
41512;SDS011;27244;59.940;30.280;2022-08-30T01:07:56;2.70;;;1.15;;
41512;SDS011;27244;59.940;30.280;2022-08-30T01:10:23;1.25;;;0.85;;
41512;SDS011;27244;59.940;30.280;2022-08-30T01:12:51;2.22;;;1.30;;
41512;SDS011;27244;59.940;30.280;2022-08-30T01:15:19;1.30;;;1.05;;
41512;SDS011;27244;59.940;30.280;2022-08-30T01:17:46;2.15;;;1.17;;
41512;SDS011;27244;59.940;30.280;2022-08-30T01:20:14;2.50;;;1.17;;
41512;SDS011;27244;59.940;30.280;2022-08-30T01:22:55;3.63;;;1.45;;
41512;SDS011;27244;59.940;30.280;2022-08-30T01:25:28;2.65;;;1.10;;
41512;SDS011;27244;59.940;30.280;2022-08-30T01:27:57;1.50;;;1.05;;
41512;SDS011;27244;59.940;30.280;2022-08-30T01:30:27;2.42;;;1.08;;
41512;SDS011;27244;59.940;30.280;2022-08-30T01:32:56;2.08;;;1.10;;
41512;SDS011;27244;59.940;30.280;2022-08-30T01:35:25;1.50;;;1.20;;
41512;SDS011;27244;59.940;30.280;2022-08-30T01:37:53;1.75;;;1.13;;
41512;SDS011;27244;59.940;30.280;2022-08-30T01:40:22;1.27;;;0.98;;
41512;SDS011;27244;59.940;30.280;2022-08-30T01:42:49;2.88;;;1.20;;
41512;SDS011;27244;59.940;30.280;2022-08-30T01:45:16;1.40;;;1.05;;
41512;SDS011;27244;59.940;30.280;2022-08-30T01:47:43;2.10;;;1.10;;
41512;SDS011;27244;59.940;30.280;2022-08-30T01:50:11;1.90;;;1.33;;
41512;SDS011;27244;59.940;30.280;2022-08-30T01:52:38;1.15;;;0.95;;
41512;SDS011;27244;59.940;30.280;2022-08-30T01:55:06;2.13;;;1.70;;
41512;SDS011;27244;59.940;30.280;2022-08-30T01:57:36;1.55;;;1.10;;
41512;SDS011;27244;59.940;30.280;2022-08-30T02:00:03;1.67;;;1.20;;
41512;SDS011;27244;59.940;30.280;2022-08-30T02:02:37;1.15;;;1.00;;
41512;SDS011;27244;59.940;30.280;2022-08-30T02:05:04;2.10;;;1.00;;
41512;SDS011;27244;59.940;30.280;2022-08-30T02:07:32;1.73;;;0.90;;
41512;SDS011;27244;59.940;30.280;2022-08-30T02:09:59;2.72;;;1.02;;
41512;SDS011;27244;59.940;30.280;2022-08-30T02:12:26;1.50;;;1.10;;
41512;SDS011;27244;59.940;30.280;2022-08-30T02:14:55;1.35;;;0.90;;
41512;SDS011;27244;59.940;30.280;2022-08-30T02:17:22;1.25;;;0.77;;
41512;SDS011;27244;59.940;30.280;2022-08-30T02:19:50;2.92;;;1.08;;
41512;SDS011;27244;59.940;30.280;2022-08-30T02:22:17;1.63;;;1.00;;
41512;SDS011;27244;59.940;30.280;2022-08-30T02:24:45;2.22;;;0.93;;
41512;SDS011;27244;59.940;30.280;2022-08-30T02:27:12;1.33;;;0.73;;
41512;SDS011;27244;59.940;30.280;2022-08-30T02:29:39;2.05;;;0.90;;
41512;SDS011;27244;59.940;30.280;2022-08-30T02:32:08;1.30;;;0.65;;
41512;SDS011;27244;59.940;30.280;2022-08-30T02:34:35;1.35;;;0.80;;
41512;SDS011;27244;59.940;30.280;2022-08-30T02:37:02;1.00;;;0.60;;
41512;SDS011;27244;59.940;30.280;2022-08-30T02:39:29;1.02;;;0.77;;
41512;SDS011;27244;59.940;30.280;2022-08-30T02:41:56;0.75;;;0.60;;
41512;SDS011;27244;59.940;30.280;2022-08-30T02:44:23;1.00;;;0.60;;
41512;SDS011;27244;59.940;30.280;2022-08-30T02:46:50;0.70;;;0.50;;
41512;SDS011;27244;59.940;30.280;2022-08-30T02:49:18;2.25;;;0.60;;
41512;SDS011;27244;59.940;30.280;2022-08-30T02:51:45;0.40;;;0.40;;
41512;SDS011;27244;59.940;30.280;2022-08-30T02:54:12;1.00;;;0.52;;
41512;SDS011;27244;59.940;30.280;2022-08-30T02:59:10;0.90;;;0.60;;
41512;SDS011;27244;59.940;30.280;2022-08-30T03:01:37;0.60;;;0.52;;
41512;SDS011;27244;59.940;30.280;2022-08-30T03:04:04;1.40;;;0.47;;
41512;SDS011;27244;59.940;30.280;2022-08-30T03:06:33;0.80;;;0.55;;
41512;SDS011;27244;59.940;30.280;2022-08-30T03:09:00;4.28;;;0.80;;
41512;SDS011;27244;59.940;30.280;2022-08-30T03:11:28;1.88;;;0.60;;
41512;SDS011;27244;59.940;30.280;2022-08-30T03:13:55;0.50;;;0.50;;
41512;SDS011;27244;59.940;30.280;2022-08-30T03:16:22;1.80;;;0.63;;
41512;SDS011;27244;59.940;30.280;2022-08-30T03:18:49;1.40;;;0.70;;
41512;SDS011;27244;59.940;30.280;2022-08-30T03:21:16;2.15;;;0.50;;
41512;SDS011;27244;59.940;30.280;2022-08-30T03:23:44;1.13;;;1.00;;
41512;SDS011;27244;59.940;30.280;2022-08-30T03:26:11;1.13;;;0.60;;
41512;SDS011;27244;59.940;30.280;2022-08-30T03:28:39;1.20;;;0.70;;
41512;SDS011;27244;59.940;30.280;2022-08-30T03:31:07;2.97;;;0.60;;
41512;SDS011;27244;59.940;30.280;2022-08-30T03:33:36;1.33;;;0.70;;
41512;SDS011;27244;59.940;30.280;2022-08-30T03:36:05;0.75;;;0.60;;
41512;SDS011;27244;59.940;30.280;2022-08-30T03:38:33;0.70;;;0.70;;
41512;SDS011;27244;59.940;30.280;2022-08-30T03:41:01;0.90;;;0.70;;
41512;SDS011;27244;59.940;30.280;2022-08-30T03:43:29;0.95;;;0.65;;
41512;SDS011;27244;59.940;30.280;2022-08-30T03:45:57;0.95;;;0.50;;
41512;SDS011;27244;59.940;30.280;2022-08-30T03:48:25;1.23;;;0.70;;
41512;SDS011;27244;59.940;30.280;2022-08-30T03:50:52;1.27;;;0.65;;
41512;SDS011;27244;59.940;30.280;2022-08-30T03:53:19;1.33;;;0.57;;
41512;SDS011;27244;59.940;30.280;2022-08-30T03:55:47;1.75;;;0.57;;
41512;SDS011;27244;59.940;30.280;2022-08-30T03:58:15;2.00;;;0.70;;
41512;SDS011;27244;59.940;30.280;2022-08-30T04:00:42;0.77;;;0.63;;
41512;SDS011;27244;59.940;30.280;2022-08-30T04:03:09;1.17;;;0.80;;
41512;SDS011;27244;59.940;30.280;2022-08-30T04:05:36;2.35;;;0.90;;
41512;SDS011;27244;59.940;30.280;2022-08-30T04:08:03;2.63;;;0.75;;
41512;SDS011;27244;59.940;30.280;2022-08-30T04:10:30;1.38;;;0.70;;
41512;SDS011;27244;59.940;30.280;2022-08-30T04:12:58;1.40;;;0.75;;
41512;SDS011;27244;59.940;30.280;2022-08-30T04:15:27;2.83;;;0.70;;
41512;SDS011;27244;59.940;30.280;2022-08-30T04:17:54;0.73;;;0.60;;
41512;SDS011;27244;59.940;30.280;2022-08-30T04:20:21;0.80;;;0.50;;
41512;SDS011;27244;59.940;30.280;2022-08-30T04:22:48;1.83;;;1.02;;
41512;SDS011;27244;59.940;30.280;2022-08-30T04:25:15;2.83;;;1.02;;
41512;SDS011;27244;59.940;30.280;2022-08-30T04:27:43;4.43;;;1.00;;
41512;SDS011;27244;59.940;30.280;2022-08-30T04:30:11;1.48;;;0.80;;
41512;SDS011;27244;59.940;30.280;2022-08-30T04:32:40;2.00;;;0.70;;
41512;SDS011;27244;59.940;30.280;2022-08-30T04:35:07;2.13;;;0.82;;
41512;SDS011;27244;59.940;30.280;2022-08-30T04:37:35;2.72;;;0.93;;
41512;SDS011;27244;59.940;30.280;2022-08-30T04:40:02;0.73;;;0.52;;
41512;SDS011;27244;59.940;30.280;2022-08-30T04:42:30;1.05;;;0.60;;
41512;SDS011;27244;59.940;30.280;2022-08-30T04:45:00;1.23;;;0.82;;
41512;SDS011;27244;59.940;30.280;2022-08-30T04:47:29;1.38;;;0.82;;
41512;SDS011;27244;59.940;30.280;2022-08-30T04:49:58;0.88;;;0.60;;
41512;SDS011;27244;59.940;30.280;2022-08-30T04:52:25;1.95;;;0.70;;
41512;SDS011;27244;59.940;30.280;2022-08-30T04:54:53;1.80;;;0.70;;
41512;SDS011;27244;59.940;30.280;2022-08-30T04:57:21;1.55;;;0.80;;
41512;SDS011;27244;59.940;30.280;2022-08-30T04:59:48;2.22;;;0.50;;
41512;SDS011;27244;59.940;30.280;2022-08-30T05:02:21;1.25;;;0.80;;
41512;SDS011;27244;59.940;30.280;2022-08-30T05:04:49;1.55;;;0.68;;
41512;SDS011;27244;59.940;30.280;2022-08-30T05:07:37;1.15;;;0.60;;
41512;SDS011;27244;59.940;30.280;2022-08-30T05:12:32;1.27;;;0.90;;
41512;SDS011;27244;59.940;30.280;2022-08-30T05:14:59;1.58;;;0.98;;
41512;SDS011;27244;59.940;30.280;2022-08-30T05:17:26;1.17;;;0.70;;
41512;SDS011;27244;59.940;30.280;2022-08-30T05:19:53;1.98;;;0.88;;
41512;SDS011;27244;59.940;30.280;2022-08-30T05:22:20;1.40;;;0.57;;
41512;SDS011;27244;59.940;30.280;2022-08-30T05:24:48;0.63;;;0.50;;
41512;SDS011;27244;59.940;30.280;2022-08-30T05:27:15;1.33;;;0.73;;
41512;SDS011;27244;59.940;30.280;2022-08-30T05:29:42;1.60;;;0.77;;
41512;SDS011;27244;59.940;30.280;2022-08-30T05:32:09;1.67;;;0.77;;
41512;SDS011;27244;59.940;30.280;2022-08-30T05:34:36;2.03;;;0.80;;
41512;SDS011;27244;59.940;30.280;2022-08-30T05:37:03;1.45;;;0.80;;
41512;SDS011;27244;59.940;30.280;2022-08-30T05:39:30;1.20;;;0.80;;
41512;SDS011;27244;59.940;30.280;2022-08-30T05:41:59;2.20;;;0.80;;
41512;SDS011;27244;59.940;30.280;2022-08-30T05:44:26;1.52;;;0.85;;
41512;SDS011;27244;59.940;30.280;2022-08-30T05:46:53;1.67;;;0.60;;
41512;SDS011;27244;59.940;30.280;2022-08-30T05:49:20;1.23;;;0.70;;
41512;SDS011;27244;59.940;30.280;2022-08-30T05:51:47;1.98;;;1.00;;
41512;SDS011;27244;59.940;30.280;2022-08-30T05:54:14;2.55;;;1.08;;
41512;SDS011;27244;59.940;30.280;2022-08-30T05:56:42;1.27;;;0.98;;
41512;SDS011;27244;59.940;30.280;2022-08-30T05:59:12;2.15;;;0.65;;
41512;SDS011;27244;59.940;30.280;2022-08-30T06:01:40;1.85;;;0.70;;
41512;SDS011;27244;59.940;30.280;2022-08-30T06:04:09;1.75;;;0.88;;
41512;SDS011;27244;59.940;30.280;2022-08-30T06:06:38;1.25;;;0.75;;
41512;SDS011;27244;59.940;30.280;2022-08-30T06:09:07;1.35;;;0.70;;
41512;SDS011;27244;59.940;30.280;2022-08-30T06:11:35;1.02;;;0.60;;
41512;SDS011;27244;59.940;30.280;2022-08-30T06:14:03;1.77;;;0.88;;
41512;SDS011;27244;59.940;30.280;2022-08-30T06:16:32;1.73;;;0.80;;
41512;SDS011;27244;59.940;30.280;2022-08-30T06:19:03;1.30;;;0.70;;
41512;SDS011;27244;59.940;30.280;2022-08-30T06:21:33;1.52;;;0.95;;
41512;SDS011;27244;59.940;30.280;2022-08-30T06:24:02;1.17;;;1.00;;
41512;SDS011;27244;59.940;30.280;2022-08-30T06:26:31;1.42;;;0.90;;
41512;SDS011;27244;59.940;30.280;2022-08-30T06:29:03;1.00;;;0.60;;
41512;SDS011;27244;59.940;30.280;2022-08-30T06:31:32;2.10;;;1.00;;
41512;SDS011;27244;59.940;30.280;2022-08-30T06:33:59;1.40;;;0.80;;
41512;SDS011;27244;59.940;30.280;2022-08-30T06:36:26;1.88;;;0.88;;
41512;SDS011;27244;59.940;30.280;2022-08-30T06:38:53;1.05;;;0.70;;
41512;SDS011;27244;59.940;30.280;2022-08-30T06:41:22;1.63;;;0.85;;
41512;SDS011;27244;59.940;30.280;2022-08-30T06:43:50;1.10;;;0.65;;
41512;SDS011;27244;59.940;30.280;2022-08-30T06:46:18;1.15;;;0.60;;
41512;SDS011;27244;59.940;30.280;2022-08-30T06:48:48;1.80;;;0.98;;
41512;SDS011;27244;59.940;30.280;2022-08-30T06:51:18;1.70;;;0.70;;
41512;SDS011;27244;59.940;30.280;2022-08-30T06:53:46;0.85;;;0.63;;
41512;SDS011;27244;59.940;30.280;2022-08-30T06:56:14;6.55;;;1.00;;
41512;SDS011;27244;59.940;30.280;2022-08-30T06:58:41;2.63;;;1.02;;
41512;SDS011;27244;59.940;30.280;2022-08-30T07:01:11;5.72;;;1.13;;
41512;SDS011;27244;59.940;30.280;2022-08-30T07:03:39;3.85;;;0.90;;
41512;SDS011;27244;59.940;30.280;2022-08-30T07:06:08;3.15;;;0.90;;
41512;SDS011;27244;59.940;30.280;2022-08-30T07:08:36;0.85;;;0.60;;
41512;SDS011;27244;59.940;30.280;2022-08-30T07:11:04;4.78;;;1.17;;
41512;SDS011;27244;59.940;30.280;2022-08-30T07:13:31;1.08;;;0.80;;
41512;SDS011;27244;59.940;30.280;2022-08-30T07:15:58;1.20;;;0.82;;
41512;SDS011;27244;59.940;30.280;2022-08-30T07:18:25;1.10;;;0.70;;
41512;SDS011;27244;59.940;30.280;2022-08-30T07:21:27;0.95;;;0.65;;
41512;SDS011;27244;59.940;30.280;2022-08-30T07:23:57;1.17;;;0.70;;
41512;SDS011;27244;59.940;30.280;2022-08-30T07:26:25;1.20;;;0.80;;
41512;SDS011;27244;59.940;30.280;2022-08-30T07:28:55;2.28;;;0.82;;
41512;SDS011;27244;59.940;30.280;2022-08-30T07:31:23;1.95;;;1.10;;
41512;SDS011;27244;59.940;30.280;2022-08-30T07:33:50;1.60;;;0.75;;
41512;SDS011;27244;59.940;30.280;2022-08-30T07:36:18;1.98;;;1.10;;
41512;SDS011;27244;59.940;30.280;2022-08-30T07:38:48;2.50;;;1.10;;
41512;SDS011;27244;59.940;30.280;2022-08-30T07:41:17;4.60;;;1.63;;
41512;SDS011;27244;59.940;30.280;2022-08-30T07:43:47;3.05;;;1.00;;
41512;SDS011;27244;59.940;30.280;2022-08-30T07:46:15;2.45;;;1.00;;
41512;SDS011;27244;59.940;30.280;2022-08-30T07:48:42;1.77;;;0.90;;
41512;SDS011;27244;59.940;30.280;2022-08-30T07:51:11;1.55;;;0.90;;
41512;SDS011;27244;59.940;30.280;2022-08-30T07:53:39;2.85;;;0.90;;
41512;SDS011;27244;59.940;30.280;2022-08-30T07:56:07;3.83;;;1.00;;
41512;SDS011;27244;59.940;30.280;2022-08-30T07:58:34;4.10;;;1.02;;
41512;SDS011;27244;59.940;30.280;2022-08-30T08:01:02;5.80;;;1.00;;
41512;SDS011;27244;59.940;30.280;2022-08-30T08:03:30;4.47;;;1.00;;
41512;SDS011;27244;59.940;30.280;2022-08-30T08:05:59;7.28;;;2.00;;
41512;SDS011;27244;59.940;30.280;2022-08-30T08:08:27;7.65;;;1.25;;
41512;SDS011;27244;59.940;30.280;2022-08-30T08:10:54;8.93;;;1.40;;
41512;SDS011;27244;59.940;30.280;2022-08-30T08:13:22;8.07;;;1.50;;
41512;SDS011;27244;59.940;30.280;2022-08-30T08:15:49;3.97;;;1.17;;
41512;SDS011;27244;59.940;30.280;2022-08-30T08:18:16;9.43;;;1.52;;
41512;SDS011;27244;59.940;30.280;2022-08-30T08:20:44;2.70;;;1.10;;
41512;SDS011;27244;59.940;30.280;2022-08-30T08:23:10;12.23;;;1.58;;
41512;SDS011;27244;59.940;30.280;2022-08-30T08:25:38;3.17;;;1.20;;
41512;SDS011;27244;59.940;30.280;2022-08-30T08:28:06;3.35;;;1.10;;
41512;SDS011;27244;59.940;30.280;2022-08-30T08:30:36;7.28;;;1.73;;
41512;SDS011;27244;59.940;30.280;2022-08-30T08:33:03;3.50;;;1.55;;
41512;SDS011;27244;59.940;30.280;2022-08-30T08:35:31;4.55;;;1.77;;
41512;SDS011;27244;59.940;30.280;2022-08-30T08:37:58;4.25;;;1.80;;
41512;SDS011;27244;59.940;30.280;2022-08-30T08:40:25;5.85;;;1.77;;
41512;SDS011;27244;59.940;30.280;2022-08-30T08:42:59;5.75;;;1.70;;
41512;SDS011;27244;59.940;30.280;2022-08-30T08:45:42;4.25;;;2.15;;
41512;SDS011;27244;59.940;30.280;2022-08-30T08:48:31;7.35;;;2.38;;
41512;SDS011;27244;59.940;30.280;2022-08-30T08:51:00;4.72;;;2.50;;
41512;SDS011;27244;59.940;30.280;2022-08-30T08:53:48;11.27;;;3.70;;
41512;SDS011;27244;59.940;30.280;2022-08-30T08:56:20;6.40;;;2.80;;
41512;SDS011;27244;59.940;30.280;2022-08-30T08:58:48;6.90;;;2.60;;
41512;SDS011;27244;59.940;30.280;2022-08-30T09:01:19;3.65;;;2.42;;
41512;SDS011;27244;59.940;30.280;2022-08-30T09:03:47;5.28;;;2.75;;
41512;SDS011;27244;59.940;30.280;2022-08-30T09:09:11;4.72;;;2.60;;
41512;SDS011;27244;59.940;30.280;2022-08-30T09:11:38;4.43;;;2.70;;
41512;SDS011;27244;59.940;30.280;2022-08-30T09:14:08;5.35;;;2.78;;
41512;SDS011;27244;59.940;30.280;2022-08-30T09:16:46;4.50;;;2.40;;
41512;SDS011;27244;59.940;30.280;2022-08-30T09:22:19;5.78;;;2.55;;
41512;SDS011;27244;59.940;30.280;2022-08-30T09:24:52;3.85;;;2.10;;
41512;SDS011;27244;59.940;30.280;2022-08-30T09:27:26;3.58;;;2.03;;
41512;SDS011;27244;59.940;30.280;2022-08-30T09:29:56;3.72;;;2.50;;
41512;SDS011;27244;59.940;30.280;2022-08-30T09:32:31;4.03;;;2.05;;
41512;SDS011;27244;59.940;30.280;2022-08-30T09:35:01;4.55;;;2.67;;
41512;SDS011;27244;59.940;30.280;2022-08-30T09:37:31;4.82;;;2.67;;
41512;SDS011;27244;59.940;30.280;2022-08-30T09:40:01;3.92;;;2.10;;
41512;SDS011;27244;59.940;30.280;2022-08-30T09:42:36;4.28;;;2.03;;
41512;SDS011;27244;59.940;30.280;2022-08-30T09:45:03;4.93;;;2.40;;
41512;SDS011;27244;59.940;30.280;2022-08-30T09:47:39;5.68;;;2.75;;
41512;SDS011;27244;59.940;30.280;2022-08-30T09:50:08;3.25;;;2.30;;
41512;SDS011;27244;59.940;30.280;2022-08-30T09:52:43;4.80;;;2.20;;
41512;SDS011;27244;59.940;30.280;2022-08-30T09:55:20;3.20;;;1.63;;
41512;SDS011;27244;59.940;30.280;2022-08-30T09:57:56;3.33;;;1.80;;
41512;SDS011;27244;59.940;30.280;2022-08-30T10:00:33;3.45;;;1.70;;
41512;SDS011;27244;59.940;30.280;2022-08-30T10:03:15;3.75;;;1.90;;
41512;SDS011;27244;59.940;30.280;2022-08-30T10:05:51;5.00;;;1.90;;
41512;SDS011;27244;59.940;30.280;2022-08-30T10:08:28;2.63;;;1.65;;
41512;SDS011;27244;59.940;30.280;2022-08-30T10:11:06;4.68;;;1.63;;
41512;SDS011;27244;59.940;30.280;2022-08-30T10:13:44;5.78;;;1.52;;
41512;SDS011;27244;59.940;30.280;2022-08-30T10:16:26;5.38;;;1.80;;
41512;SDS011;27244;59.940;30.280;2022-08-30T10:19:05;3.38;;;1.50;;
41512;SDS011;27244;59.940;30.280;2022-08-30T10:21:42;3.97;;;1.67;;
41512;SDS011;27244;59.940;30.280;2022-08-30T10:24:15;2.40;;;1.33;;
41512;SDS011;27244;59.940;30.280;2022-08-30T10:26:47;14.18;;;2.03;;
41512;SDS011;27244;59.940;30.280;2022-08-30T10:29:21;4.18;;;1.50;;
41512;SDS011;27244;59.940;30.280;2022-08-30T10:31:51;5.18;;;1.45;;
41512;SDS011;27244;59.940;30.280;2022-08-30T10:34:24;5.05;;;1.70;;
41512;SDS011;27244;59.940;30.280;2022-08-30T10:36:57;3.13;;;1.35;;
41512;SDS011;27244;59.940;30.280;2022-08-30T10:39:31;7.43;;;1.70;;
41512;SDS011;27244;59.940;30.280;2022-08-30T10:42:06;3.85;;;1.50;;
41512;SDS011;27244;59.940;30.280;2022-08-30T10:44:38;5.32;;;1.60;;
41512;SDS011;27244;59.940;30.280;2022-08-30T10:47:11;4.10;;;1.58;;
41512;SDS011;27244;59.940;30.280;2022-08-30T10:49:49;6.10;;;1.92;;
41512;SDS011;27244;59.940;30.280;2022-08-30T10:52:23;4.30;;;1.50;;
41512;SDS011;27244;59.940;30.280;2022-08-30T10:54:57;3.47;;;1.38;;
41512;SDS011;27244;59.940;30.280;2022-08-30T10:57:28;4.03;;;1.55;;
41512;SDS011;27244;59.940;30.280;2022-08-30T10:59:56;3.53;;;1.35;;
41512;SDS011;27244;59.940;30.280;2022-08-30T11:08:50;3.17;;;1.73;;
41512;SDS011;27244;59.940;30.280;2022-08-30T11:11:29;6.03;;;2.00;;
41512;SDS011;27244;59.940;30.280;2022-08-30T11:14:05;3.90;;;1.33;;
41512;SDS011;27244;59.940;30.280;2022-08-30T11:16:36;4.72;;;1.70;;
41512;SDS011;27244;59.940;30.280;2022-08-30T11:19:12;3.60;;;1.20;;
41512;SDS011;27244;59.940;30.280;2022-08-30T11:21:43;2.03;;;1.13;;
41512;SDS011;27244;59.940;30.280;2022-08-30T11:24:12;2.60;;;1.35;;
41512;SDS011;27244;59.940;30.280;2022-08-30T11:26:55;3.00;;;1.20;;
41512;SDS011;27244;59.940;30.280;2022-08-30T11:29:29;4.90;;;1.30;;
41512;SDS011;27244;59.940;30.280;2022-08-30T11:31:59;2.78;;;1.20;;
41512;SDS011;27244;59.940;30.280;2022-08-30T11:34:53;3.35;;;1.23;;
41512;SDS011;27244;59.940;30.280;2022-08-30T11:37:34;3.05;;;1.30;;
41512;SDS011;27244;59.940;30.280;2022-08-30T11:43:47;5.35;;;1.38;;
41512;SDS011;27244;59.940;30.280;2022-08-30T11:46:13;4.90;;;1.70;;
41512;SDS011;27244;59.940;30.280;2022-08-30T11:48:44;3.45;;;1.42;;
41512;SDS011;27244;59.940;30.280;2022-08-30T11:51:28;2.78;;;0.90;;
41512;SDS011;27244;59.940;30.280;2022-08-30T11:54:09;3.00;;;1.20;;
41512;SDS011;27244;59.940;30.280;2022-08-30T11:56:53;3.03;;;1.10;;
41512;SDS011;27244;59.940;30.280;2022-08-30T11:59:31;2.55;;;1.30;;
41512;SDS011;27244;59.940;30.280;2022-08-30T12:02:08;3.63;;;1.13;;
41512;SDS011;27244;59.940;30.280;2022-08-30T12:04:36;3.65;;;1.20;;
41512;SDS011;27244;59.940;30.280;2022-08-30T12:07:10;2.40;;;1.08;;
41512;SDS011;27244;59.940;30.280;2022-08-30T12:12:43;2.78;;;1.10;;
41512;SDS011;27244;59.940;30.280;2022-08-30T12:15:24;8.15;;;1.30;;
41512;SDS011;27244;59.940;30.280;2022-08-30T12:18:17;4.33;;;1.70;;
41512;SDS011;27244;59.940;30.280;2022-08-30T12:20:55;5.05;;;1.20;;
41512;SDS011;27244;59.940;30.280;2022-08-30T12:23:32;4.85;;;1.88;;
41512;SDS011;27244;59.940;30.280;2022-08-30T12:26:12;5.72;;;1.25;;
41512;SDS011;27244;59.940;30.280;2022-08-30T12:28:42;2.67;;;1.20;;
41512;SDS011;27244;59.940;30.280;2022-08-30T12:31:11;3.17;;;1.20;;
41512;SDS011;27244;59.940;30.280;2022-08-30T12:33:42;5.68;;;1.40;;
41512;SDS011;27244;59.940;30.280;2022-08-30T12:36:15;4.82;;;1.60;;
41512;SDS011;27244;59.940;30.280;2022-08-30T12:39:09;2.15;;;1.17;;
41512;SDS011;27244;59.940;30.280;2022-08-30T12:41:38;2.73;;;0.93;;
41512;SDS011;27244;59.940;30.280;2022-08-30T12:44:06;3.08;;;1.30;;
41512;SDS011;27244;59.940;30.280;2022-08-30T12:46:37;2.70;;;1.20;;
41512;SDS011;27244;59.940;30.280;2022-08-30T12:49:07;4.25;;;1.20;;
41512;SDS011;27244;59.940;30.280;2022-08-30T12:51:37;9.65;;;1.67;;
41512;SDS011;27244;59.940;30.280;2022-08-30T12:54:06;8.00;;;1.73;;
41512;SDS011;27244;59.940;30.280;2022-08-30T12:56:47;5.13;;;1.40;;
41512;SDS011;27244;59.940;30.280;2022-08-30T13:02:11;6.78;;;1.60;;
41512;SDS011;27244;59.940;30.280;2022-08-30T13:04:41;8.90;;;1.52;;
41512;SDS011;27244;59.940;30.280;2022-08-30T13:07:22;5.88;;;1.40;;
41512;SDS011;27244;59.940;30.280;2022-08-30T13:09:58;5.80;;;1.35;;
41512;SDS011;27244;59.940;30.280;2022-08-30T13:12:28;2.05;;;1.20;;
41512;SDS011;27244;59.940;30.280;2022-08-30T13:15:08;4.95;;;1.10;;
41512;SDS011;27244;59.940;30.280;2022-08-30T13:17:37;6.07;;;1.50;;
41512;SDS011;27244;59.940;30.280;2022-08-30T13:20:10;3.83;;;1.73;;
41512;SDS011;27244;59.940;30.280;2022-08-30T13:25:31;3.33;;;1.60;;
41512;SDS011;27244;59.940;30.280;2022-08-30T13:27:59;3.55;;;1.60;;
41512;SDS011;27244;59.940;30.280;2022-08-30T13:30:27;6.63;;;1.80;;
41512;SDS011;27244;59.940;30.280;2022-08-30T13:32:55;4.28;;;1.80;;
41512;SDS011;27244;59.940;30.280;2022-08-30T13:35:23;7.60;;;1.88;;
41512;SDS011;27244;59.940;30.280;2022-08-30T13:37:50;7.88;;;1.70;;
41512;SDS011;27244;59.940;30.280;2022-08-30T13:40:19;7.45;;;1.67;;
41512;SDS011;27244;59.940;30.280;2022-08-30T13:42:46;12.10;;;1.95;;
41512;SDS011;27244;59.940;30.280;2022-08-30T13:45:15;7.40;;;2.03;;
41512;SDS011;27244;59.940;30.280;2022-08-30T13:47:43;6.60;;;1.50;;
41512;SDS011;27244;59.940;30.280;2022-08-30T13:50:12;5.63;;;1.50;;
41512;SDS011;27244;59.940;30.280;2022-08-30T13:52:40;6.43;;;1.88;;
41512;SDS011;27244;59.940;30.280;2022-08-30T13:55:08;4.97;;;1.80;;
41512;SDS011;27244;59.940;30.280;2022-08-30T13:57:36;8.73;;;1.60;;
41512;SDS011;27244;59.940;30.280;2022-08-30T14:00:04;12.57;;;1.92;;
41512;SDS011;27244;59.940;30.280;2022-08-30T14:02:37;6.47;;;2.28;;
41512;SDS011;27244;59.940;30.280;2022-08-30T14:05:06;11.95;;;1.80;;
41512;SDS011;27244;59.940;30.280;2022-08-30T14:07:33;7.00;;;1.60;;
41512;SDS011;27244;59.940;30.280;2022-08-30T14:10:02;8.45;;;1.55;;
41512;SDS011;27244;59.940;30.280;2022-08-30T14:12:30;4.90;;;1.48;;
41512;SDS011;27244;59.940;30.280;2022-08-30T14:14:57;11.63;;;1.65;;
41512;SDS011;27244;59.940;30.280;2022-08-30T14:17:25;5.75;;;1.52;;
41512;SDS011;27244;59.940;30.280;2022-08-30T14:19:54;5.25;;;1.40;;
41512;SDS011;27244;59.940;30.280;2022-08-30T14:22:21;5.97;;;1.42;;
41512;SDS011;27244;59.940;30.280;2022-08-30T14:24:48;6.53;;;1.60;;
41512;SDS011;27244;59.940;30.280;2022-08-30T14:27:17;5.63;;;1.77;;
41512;SDS011;27244;59.940;30.280;2022-08-30T14:29:44;6.10;;;1.42;;
41512;SDS011;27244;59.940;30.280;2022-08-30T14:32:11;3.20;;;1.75;;
41512;SDS011;27244;59.940;30.280;2022-08-30T14:34:38;7.47;;;1.50;;
41512;SDS011;27244;59.940;30.280;2022-08-30T14:37:05;5.60;;;1.50;;
41512;SDS011;27244;59.940;30.280;2022-08-30T14:39:32;6.40;;;1.80;;
41512;SDS011;27244;59.940;30.280;2022-08-30T14:41:59;7.53;;;1.80;;
41512;SDS011;27244;59.940;30.280;2022-08-30T14:44:27;5.15;;;1.60;;
41512;SDS011;27244;59.940;30.280;2022-08-30T14:46:55;4.28;;;1.92;;
41512;SDS011;27244;59.940;30.280;2022-08-30T14:49:22;6.75;;;2.08;;
41512;SDS011;27244;59.940;30.280;2022-08-30T14:51:49;4.50;;;1.30;;
41512;SDS011;27244;59.940;30.280;2022-08-30T14:54:18;3.00;;;1.50;;
41512;SDS011;27244;59.940;30.280;2022-08-30T14:56:46;5.70;;;1.60;;
41512;SDS011;27244;59.940;30.280;2022-08-30T14:59:13;3.75;;;1.20;;
41512;SDS011;27244;59.940;30.280;2022-08-30T15:01:42;4.82;;;1.48;;
41512;SDS011;27244;59.940;30.280;2022-08-30T15:04:10;4.90;;;1.40;;
41512;SDS011;27244;59.940;30.280;2022-08-30T15:06:38;6.22;;;1.48;;
41512;SDS011;27244;59.940;30.280;2022-08-30T15:09:08;3.05;;;1.20;;
41512;SDS011;27244;59.940;30.280;2022-08-30T15:11:36;4.30;;;1.20;;
41512;SDS011;27244;59.940;30.280;2022-08-30T15:14:04;5.78;;;1.77;;
41512;SDS011;27244;59.940;30.280;2022-08-30T15:16:32;4.65;;;1.50;;
41512;SDS011;27244;59.940;30.280;2022-08-30T15:19:03;4.85;;;1.40;;